sensor_id;sensor_type;location;lat;lon;timestamp;temperature;humidity
814;DHT22;389;48.710;9.392;2023-04-05T00:00:37;0.60;85.20
814;DHT22;389;48.710;9.392;2023-04-05T00:03:03;0.60;85.70
814;DHT22;389;48.710;9.392;2023-04-05T00:05:30;0.60;86.50
814;DHT22;389;48.710;9.392;2023-04-05T00:07:56;0.60;86.10
814;DHT22;389;48.710;9.392;2023-04-05T00:10:23;0.60;86.10
814;DHT22;389;48.710;9.392;2023-04-05T00:12:49;0.60;86.10
814;DHT22;389;48.710;9.392;2023-04-05T00:15:15;0.50;86.10
814;DHT22;389;48.710;9.392;2023-04-05T00:17:41;0.50;86.20
814;DHT22;389;48.710;9.392;2023-04-05T00:20:08;0.50;86.20
814;DHT22;389;48.710;9.392;2023-04-05T00:22:35;0.40;86.40
814;DHT22;389;48.710;9.392;2023-04-05T00:25:03;0.60;87.00
814;DHT22;389;48.710;9.392;2023-04-05T00:27:29;0.40;87.00
814;DHT22;389;48.710;9.392;2023-04-05T00:29:54;0.40;87.20
814;DHT22;389;48.710;9.392;2023-04-05T00:32:21;0.30;87.50
814;DHT22;389;48.710;9.392;2023-04-05T00:34:46;0.40;87.70
814;DHT22;389;48.710;9.392;2023-04-05T00:37:12;0.30;87.80
814;DHT22;389;48.710;9.392;2023-04-05T00:39:38;0.30;87.90
814;DHT22;389;48.710;9.392;2023-04-05T00:42:04;0.30;88.10
814;DHT22;389;48.710;9.392;2023-04-05T00:44:31;0.30;88.20
814;DHT22;389;48.710;9.392;2023-04-05T00:47:04;0.30;88.40
814;DHT22;389;48.710;9.392;2023-04-05T00:49:32;0.30;88.60
814;DHT22;389;48.710;9.392;2023-04-05T00:51:57;0.30;88.80
814;DHT22;389;48.710;9.392;2023-04-05T00:54:27;0.20;88.90
814;DHT22;389;48.710;9.392;2023-04-05T00:56:58;0.30;89.30
814;DHT22;389;48.710;9.392;2023-04-05T00:59:27;0.30;89.40
814;DHT22;389;48.710;9.392;2023-04-05T01:02:40;0.20;90.10
814;DHT22;389;48.710;9.392;2023-04-05T01:05:11;0.20;89.70
814;DHT22;389;48.710;9.392;2023-04-05T01:07:50;0.30;90.30
814;DHT22;389;48.710;9.392;2023-04-05T01:10:21;0.20;90.00
814;DHT22;389;48.710;9.392;2023-04-05T01:12:52;0.10;89.90
814;DHT22;389;48.710;9.392;2023-04-05T01:15:17;0.10;90.30
814;DHT22;389;48.710;9.392;2023-04-05T01:17:43;0.10;90.10
814;DHT22;389;48.710;9.392;2023-04-05T01:20:11;0.00;90.10
814;DHT22;389;48.710;9.392;2023-04-05T01:28:32;-0.10;90.40
814;DHT22;389;48.710;9.392;2023-04-05T01:31:04;-0.10;90.50
814;DHT22;389;48.710;9.392;2023-04-05T01:34:39;-0.10;90.50
814;DHT22;389;48.710;9.392;2023-04-05T01:36:39;-0.10;90.50
814;DHT22;389;48.710;9.392;2023-04-05T01:39:08;-0.20;90.50
814;DHT22;389;48.710;9.392;2023-04-05T01:41:34;-0.20;90.60
814;DHT22;389;48.710;9.392;2023-04-05T01:44:00;-0.30;90.70
814;DHT22;389;48.710;9.392;2023-04-05T01:46:26;-0.30;90.70
814;DHT22;389;48.710;9.392;2023-04-05T01:48:51;-0.30;90.70
814;DHT22;389;48.710;9.392;2023-04-05T01:51:17;-0.30;90.70
814;DHT22;389;48.710;9.392;2023-04-05T01:53:42;-0.40;90.70
814;DHT22;389;48.710;9.392;2023-04-05T01:56:08;-0.40;90.70
814;DHT22;389;48.710;9.392;2023-04-05T01:58:33;-0.40;90.70
814;DHT22;389;48.710;9.392;2023-04-05T02:00:59;-0.50;90.70
814;DHT22;389;48.710;9.392;2023-04-05T02:03:25;-0.50;90.80
814;DHT22;389;48.710;9.392;2023-04-05T02:05:50;-0.50;90.90
814;DHT22;389;48.710;9.392;2023-04-05T02:08:16;-0.60;90.90
814;DHT22;389;48.710;9.392;2023-04-05T02:10:43;-0.60;91.00
814;DHT22;389;48.710;9.392;2023-04-05T02:13:08;-0.60;91.10
814;DHT22;389;48.710;9.392;2023-04-05T02:15:34;-0.70;91.20
814;DHT22;389;48.710;9.392;2023-04-05T02:18:00;-0.70;91.20
814;DHT22;389;48.710;9.392;2023-04-05T02:20:28;-0.70;91.30
814;DHT22;389;48.710;9.392;2023-04-05T02:22:55;-0.70;91.40
814;DHT22;389;48.710;9.392;2023-04-05T02:25:21;-0.70;91.50
814;DHT22;389;48.710;9.392;2023-04-05T02:27:46;-0.80;91.70
814;DHT22;389;48.710;9.392;2023-04-05T02:30:13;-0.80;91.70
814;DHT22;389;48.710;9.392;2023-04-05T02:32:39;-0.80;91.80
814;DHT22;389;48.710;9.392;2023-04-05T02:35:07;-0.80;91.80
814;DHT22;389;48.710;9.392;2023-04-05T02:37:33;-0.90;91.80
814;DHT22;389;48.710;9.392;2023-04-05T02:39:59;-0.90;91.80
814;DHT22;389;48.710;9.392;2023-04-05T02:42:25;-1.00;91.90
814;DHT22;389;48.710;9.392;2023-04-05T02:44:51;-1.00;92.00
814;DHT22;389;48.710;9.392;2023-04-05T02:47:17;-1.00;92.10
814;DHT22;389;48.710;9.392;2023-04-05T02:49:49;-1.00;92.20
814;DHT22;389;48.710;9.392;2023-04-05T02:52:15;-1.10;92.20
814;DHT22;389;48.710;9.392;2023-04-05T02:54:41;-1.10;92.20
814;DHT22;389;48.710;9.392;2023-04-05T02:57:07;-1.10;92.20
814;DHT22;389;48.710;9.392;2023-04-05T02:59:36;-1.10;92.20
814;DHT22;389;48.710;9.392;2023-04-05T03:02:03;-1.10;92.30
814;DHT22;389;48.710;9.392;2023-04-05T03:04:29;-1.20;92.30
814;DHT22;389;48.710;9.392;2023-04-05T03:07:01;-1.20;92.30
814;DHT22;389;48.710;9.392;2023-04-05T03:09:31;-1.20;92.30
814;DHT22;389;48.710;9.392;2023-04-05T03:12:03;-1.30;92.40
814;DHT22;389;48.710;9.392;2023-04-05T03:14:29;-1.30;92.50
814;DHT22;389;48.710;9.392;2023-04-05T03:16:56;-1.30;92.50
814;DHT22;389;48.710;9.392;2023-04-05T03:19:22;-1.30;92.60
814;DHT22;389;48.710;9.392;2023-04-05T03:21:48;-1.30;92.70
814;DHT22;389;48.710;9.392;2023-04-05T03:24:14;-1.40;92.70
814;DHT22;389;48.710;9.392;2023-04-05T03:26:45;-1.40;92.80
814;DHT22;389;48.710;9.392;2023-04-05T03:29:11;-1.40;92.80
814;DHT22;389;48.710;9.392;2023-04-05T03:31:37;-1.50;92.80
814;DHT22;389;48.710;9.392;2023-04-05T03:34:03;-1.50;92.90
814;DHT22;389;48.710;9.392;2023-04-05T03:36:29;-1.50;93.00
814;DHT22;389;48.710;9.392;2023-04-05T03:39:07;-1.50;93.10
814;DHT22;389;48.710;9.392;2023-04-05T03:41:33;-1.60;93.20
814;DHT22;389;48.710;9.392;2023-04-05T03:43:59;-1.60;93.30
814;DHT22;389;48.710;9.392;2023-04-05T03:46:25;-1.60;93.40
814;DHT22;389;48.710;9.392;2023-04-05T03:48:50;-1.60;93.40
814;DHT22;389;48.710;9.392;2023-04-05T03:51:16;-1.70;93.40
814;DHT22;389;48.710;9.392;2023-04-05T03:53:43;-1.70;93.50
814;DHT22;389;48.710;9.392;2023-04-05T03:56:09;-1.70;93.60
814;DHT22;389;48.710;9.392;2023-04-05T03:58:35;-1.70;93.60
814;DHT22;389;48.710;9.392;2023-04-05T04:01:01;-1.70;93.60
814;DHT22;389;48.710;9.392;2023-04-05T04:03:27;-1.80;93.60
814;DHT22;389;48.710;9.392;2023-04-05T04:05:54;-1.80;93.70
814;DHT22;389;48.710;9.392;2023-04-05T04:08:20;-1.80;93.80
814;DHT22;389;48.710;9.392;2023-04-05T04:10:46;-1.80;93.90
814;DHT22;389;48.710;9.392;2023-04-05T04:13:11;-1.80;93.90
814;DHT22;389;48.710;9.392;2023-04-05T04:15:37;-1.80;93.90
814;DHT22;389;48.710;9.392;2023-04-05T04:18:02;-1.90;93.90
814;DHT22;389;48.710;9.392;2023-04-05T04:20:28;-1.90;94.00
814;DHT22;389;48.710;9.392;2023-04-05T04:22:55;-2.00;94.10
814;DHT22;389;48.710;9.392;2023-04-05T04:25:20;-2.00;94.30
814;DHT22;389;48.710;9.392;2023-04-05T04:27:46;-2.00;94.40
814;DHT22;389;48.710;9.392;2023-04-05T04:30:13;-2.00;94.50
814;DHT22;389;48.710;9.392;2023-04-05T04:32:40;-2.00;94.60
814;DHT22;389;48.710;9.392;2023-04-05T04:35:16;-2.00;94.60
814;DHT22;389;48.710;9.392;2023-04-05T04:37:51;-2.00;94.70
814;DHT22;389;48.710;9.392;2023-04-05T04:40:27;-2.00;94.80
814;DHT22;389;48.710;9.392;2023-04-05T04:42:54;-2.00;94.80
814;DHT22;389;48.710;9.392;2023-04-05T04:45:23;-2.00;94.70
814;DHT22;389;48.710;9.392;2023-04-05T04:47:48;-2.00;94.70
814;DHT22;389;48.710;9.392;2023-04-05T04:50:17;-2.10;94.60
814;DHT22;389;48.710;9.392;2023-04-05T04:52:44;-2.10;94.70
814;DHT22;389;48.710;9.392;2023-04-05T04:55:10;-2.10;94.80
814;DHT22;389;48.710;9.392;2023-04-05T04:57:42;-2.10;94.80
814;DHT22;389;48.710;9.392;2023-04-05T05:00:08;-2.10;94.80
814;DHT22;389;48.710;9.392;2023-04-05T05:02:40;-2.10;94.80
814;DHT22;389;48.710;9.392;2023-04-05T05:05:07;-2.10;95.20
814;DHT22;389;48.710;9.392;2023-04-05T05:07:33;-2.10;95.00
814;DHT22;389;48.710;9.392;2023-04-05T05:09:59;-2.10;95.00
814;DHT22;389;48.710;9.392;2023-04-05T05:12:25;-2.10;95.10
814;DHT22;389;48.710;9.392;2023-04-05T05:14:51;-2.10;95.40
814;DHT22;389;48.710;9.392;2023-04-05T05:17:20;-2.10;95.10
814;DHT22;389;48.710;9.392;2023-04-05T05:19:46;-2.10;95.20
814;DHT22;389;48.710;9.392;2023-04-05T05:22:11;-2.00;95.30
814;DHT22;389;48.710;9.392;2023-04-05T05:24:37;-2.00;95.40
814;DHT22;389;48.710;9.392;2023-04-05T05:27:02;-2.00;95.50
814;DHT22;389;48.710;9.392;2023-04-05T05:29:28;-1.90;95.60
814;DHT22;389;48.710;9.392;2023-04-05T05:31:54;-1.90;95.70
814;DHT22;389;48.710;9.392;2023-04-05T05:34:20;-1.80;95.70
814;DHT22;389;48.710;9.392;2023-04-05T05:36:46;-1.80;95.80
814;DHT22;389;48.710;9.392;2023-04-05T05:39:12;-1.70;96.00
814;DHT22;389;48.710;9.392;2023-04-05T05:41:37;-1.50;96.40
814;DHT22;389;48.710;9.392;2023-04-05T05:44:03;-1.00;97.00
814;DHT22;389;48.710;9.392;2023-04-05T05:46:29;-0.90;97.30
814;DHT22;389;48.710;9.392;2023-04-05T05:48:54;-0.60;97.50
814;DHT22;389;48.710;9.392;2023-04-05T05:51:21;-0.40;97.70
814;DHT22;389;48.710;9.392;2023-04-05T05:53:46;0.00;97.80
814;DHT22;389;48.710;9.392;2023-04-05T05:56:12;0.30;97.80
814;DHT22;389;48.710;9.392;2023-04-05T05:58:38;0.60;97.70
814;DHT22;389;48.710;9.392;2023-04-05T06:01:05;0.90;97.50
814;DHT22;389;48.710;9.392;2023-04-05T06:03:32;1.20;97.20
814;DHT22;389;48.710;9.392;2023-04-05T06:05:58;1.50;96.60
814;DHT22;389;48.710;9.392;2023-04-05T06:08:25;1.70;95.70
814;DHT22;389;48.710;9.392;2023-04-05T06:10:54;1.90;94.70
814;DHT22;389;48.710;9.392;2023-04-05T06:13:20;2.00;93.80
814;DHT22;389;48.710;9.392;2023-04-05T06:15:56;2.10;92.90
814;DHT22;389;48.710;9.392;2023-04-05T06:18:21;2.10;92.30
814;DHT22;389;48.710;9.392;2023-04-05T06:20:47;2.10;91.70
814;DHT22;389;48.710;9.392;2023-04-05T06:23:13;2.00;91.40
814;DHT22;389;48.710;9.392;2023-04-05T06:25:39;2.00;91.00
814;DHT22;389;48.710;9.392;2023-04-05T06:28:06;2.00;91.00
814;DHT22;389;48.710;9.392;2023-04-05T06:30:32;2.00;90.80
814;DHT22;389;48.710;9.392;2023-04-05T06:32:58;2.00;90.40
814;DHT22;389;48.710;9.392;2023-04-05T06:35:25;2.00;90.30
814;DHT22;389;48.710;9.392;2023-04-05T06:37:51;2.00;90.30
814;DHT22;389;48.710;9.392;2023-04-05T06:40:17;2.10;90.30
814;DHT22;389;48.710;9.392;2023-04-05T06:42:44;2.10;90.00
814;DHT22;389;48.710;9.392;2023-04-05T06:45:10;2.20;90.00
814;DHT22;389;48.710;9.392;2023-04-05T06:47:37;2.20;89.60
814;DHT22;389;48.710;9.392;2023-04-05T06:50:05;2.30;89.40
814;DHT22;389;48.710;9.392;2023-04-05T06:52:32;2.30;89.00
814;DHT22;389;48.710;9.392;2023-04-05T06:54:57;2.40;88.60
814;DHT22;389;48.710;9.392;2023-04-05T06:57:23;2.50;88.10
814;DHT22;389;48.710;9.392;2023-04-05T06:59:50;2.60;88.00
814;DHT22;389;48.710;9.392;2023-04-05T07:02:16;2.70;88.00
814;DHT22;389;48.710;9.392;2023-04-05T07:04:42;2.70;87.30
814;DHT22;389;48.710;9.392;2023-04-05T07:07:08;2.80;86.70
814;DHT22;389;48.710;9.392;2023-04-05T07:09:34;2.90;86.60
814;DHT22;389;48.710;9.392;2023-04-05T07:12:02;3.00;85.90
814;DHT22;389;48.710;9.392;2023-04-05T07:14:29;3.10;85.40
814;DHT22;389;48.710;9.392;2023-04-05T07:16:55;3.10;85.10
814;DHT22;389;48.710;9.392;2023-04-05T07:19:21;3.20;84.80
814;DHT22;389;48.710;9.392;2023-04-05T07:21:47;3.30;84.30
814;DHT22;389;48.710;9.392;2023-04-05T07:24:13;3.30;83.80
814;DHT22;389;48.710;9.392;2023-04-05T07:26:39;3.30;83.90
814;DHT22;389;48.710;9.392;2023-04-05T07:29:05;3.40;83.80
814;DHT22;389;48.710;9.392;2023-04-05T07:31:33;3.50;83.30
814;DHT22;389;48.710;9.392;2023-04-05T07:33:59;3.60;82.80
814;DHT22;389;48.710;9.392;2023-04-05T07:36:25;3.70;82.60
814;DHT22;389;48.710;9.392;2023-04-05T07:38:53;3.80;82.50
814;DHT22;389;48.710;9.392;2023-04-05T07:41:18;3.90;82.20
814;DHT22;389;48.710;9.392;2023-04-05T07:43:45;4.00;81.90
814;DHT22;389;48.710;9.392;2023-04-05T07:46:11;4.10;80.80
814;DHT22;389;48.710;9.392;2023-04-05T07:48:37;4.20;80.50
814;DHT22;389;48.710;9.392;2023-04-05T07:51:07;4.30;79.60
814;DHT22;389;48.710;9.392;2023-04-05T07:53:33;4.40;78.90
814;DHT22;389;48.710;9.392;2023-04-05T07:56:03;4.50;78.50
814;DHT22;389;48.710;9.392;2023-04-05T07:58:29;4.70;78.30
814;DHT22;389;48.710;9.392;2023-04-05T08:01:04;4.70;77.90
814;DHT22;389;48.710;9.392;2023-04-05T08:03:30;4.70;77.40
814;DHT22;389;48.710;9.392;2023-04-05T08:05:56;4.90;76.40
814;DHT22;389;48.710;9.392;2023-04-05T08:08:23;5.00;75.00
814;DHT22;389;48.710;9.392;2023-04-05T08:10:49;5.00;73.20
814;DHT22;389;48.710;9.392;2023-04-05T08:13:15;5.10;72.80
814;DHT22;389;48.710;9.392;2023-04-05T08:15:41;5.20;72.60
814;DHT22;389;48.710;9.392;2023-04-05T08:18:06;5.30;72.20
814;DHT22;389;48.710;9.392;2023-04-05T08:20:32;5.40;72.00
814;DHT22;389;48.710;9.392;2023-04-05T08:23:03;5.60;69.90
814;DHT22;389;48.710;9.392;2023-04-05T08:25:29;5.70;67.40
814;DHT22;389;48.710;9.392;2023-04-05T08:27:54;5.80;65.50
814;DHT22;389;48.710;9.392;2023-04-05T08:30:20;5.90;65.10
814;DHT22;389;48.710;9.392;2023-04-05T08:32:47;6.00;65.50
814;DHT22;389;48.710;9.392;2023-04-05T08:35:13;6.20;63.30
814;DHT22;389;48.710;9.392;2023-04-05T08:37:39;6.30;61.70
814;DHT22;389;48.710;9.392;2023-04-05T08:40:05;6.40;60.70
814;DHT22;389;48.710;9.392;2023-04-05T08:42:41;6.60;60.70
814;DHT22;389;48.710;9.392;2023-04-05T08:45:09;6.70;60.30
814;DHT22;389;48.710;9.392;2023-04-05T08:47:36;6.90;59.70
814;DHT22;389;48.710;9.392;2023-04-05T08:50:03;7.00;59.50
814;DHT22;389;48.710;9.392;2023-04-05T08:52:30;7.00;58.90
814;DHT22;389;48.710;9.392;2023-04-05T08:54:56;7.10;59.00
814;DHT22;389;48.710;9.392;2023-04-05T08:57:25;7.20;58.90
814;DHT22;389;48.710;9.392;2023-04-05T08:59:54;7.20;56.90
814;DHT22;389;48.710;9.392;2023-04-05T09:02:22;7.30;57.10
814;DHT22;389;48.710;9.392;2023-04-05T09:04:49;7.30;56.60
814;DHT22;389;48.710;9.392;2023-04-05T09:07:15;7.30;56.70
814;DHT22;389;48.710;9.392;2023-04-05T09:09:45;7.40;56.70
814;DHT22;389;48.710;9.392;2023-04-05T09:12:11;7.40;57.30
814;DHT22;389;48.710;9.392;2023-04-05T09:14:38;7.50;56.80
814;DHT22;389;48.710;9.392;2023-04-05T09:17:05;7.60;56.40
814;DHT22;389;48.710;9.392;2023-04-05T09:19:31;7.70;56.00
814;DHT22;389;48.710;9.392;2023-04-05T09:24:36;7.80;54.80
814;DHT22;389;48.710;9.392;2023-04-05T09:27:08;8.00;54.40
814;DHT22;389;48.710;9.392;2023-04-05T09:29:41;8.00;53.90
814;DHT22;389;48.710;9.392;2023-04-05T09:32:09;8.10;54.30
814;DHT22;389;48.710;9.392;2023-04-05T09:34:35;8.20;54.40
814;DHT22;389;48.710;9.392;2023-04-05T09:37:03;8.40;53.50
814;DHT22;389;48.710;9.392;2023-04-05T09:39:36;8.40;52.40
814;DHT22;389;48.710;9.392;2023-04-05T09:42:08;8.50;52.80
814;DHT22;389;48.710;9.392;2023-04-05T09:44:51;8.50;53.30
814;DHT22;389;48.710;9.392;2023-04-05T09:47:20;8.60;52.90
814;DHT22;389;48.710;9.392;2023-04-05T09:49:50;8.70;52.90
814;DHT22;389;48.710;9.392;2023-04-05T09:52:30;8.80;52.90
814;DHT22;389;48.710;9.392;2023-04-05T09:55:01;8.90;52.30
814;DHT22;389;48.710;9.392;2023-04-05T09:57:27;9.00;52.50
814;DHT22;389;48.710;9.392;2023-04-05T09:59:55;9.20;52.30
814;DHT22;389;48.710;9.392;2023-04-05T10:02:21;9.10;51.70
814;DHT22;389;48.710;9.392;2023-04-05T10:04:47;9.30;52.40
814;DHT22;389;48.710;9.392;2023-04-05T10:07:16;9.30;51.30
814;DHT22;389;48.710;9.392;2023-04-05T10:09:44;9.00;51.70
814;DHT22;389;48.710;9.392;2023-04-05T10:12:24;9.30;51.70
814;DHT22;389;48.710;9.392;2023-04-05T10:14:54;9.30;51.20
814;DHT22;389;48.710;9.392;2023-04-05T10:17:46;9.30;51.70
814;DHT22;389;48.710;9.392;2023-04-05T10:20:23;9.40;51.40
814;DHT22;389;48.710;9.392;2023-04-05T10:23:11;9.50;51.40
814;DHT22;389;48.710;9.392;2023-04-05T10:28:42;9.60;50.70
814;DHT22;389;48.710;9.392;2023-04-05T10:33:43;9.70;50.40
814;DHT22;389;48.710;9.392;2023-04-05T10:36:23;9.70;50.20
814;DHT22;389;48.710;9.392;2023-04-05T10:41:33;9.70;49.50
814;DHT22;389;48.710;9.392;2023-04-05T10:44:01;9.60;49.80
814;DHT22;389;48.710;9.392;2023-04-05T10:46:29;9.70;49.30
814;DHT22;389;48.710;9.392;2023-04-05T10:49:09;9.70;49.30
814;DHT22;389;48.710;9.392;2023-04-05T10:51:36;9.70;49.40
814;DHT22;389;48.710;9.392;2023-04-05T10:54:02;9.60;49.30
814;DHT22;389;48.710;9.392;2023-04-05T10:56:29;9.70;49.50
814;DHT22;389;48.710;9.392;2023-04-05T10:58:57;9.80;49.30
814;DHT22;389;48.710;9.392;2023-04-05T11:01:24;9.80;48.90
814;DHT22;389;48.710;9.392;2023-04-05T11:03:51;9.70;49.10
814;DHT22;389;48.710;9.392;2023-04-05T11:06:37;9.80;48.80
814;DHT22;389;48.710;9.392;2023-04-05T11:11:37;9.70;49.60
814;DHT22;389;48.710;9.392;2023-04-05T11:14:22;9.70;49.20
814;DHT22;389;48.710;9.392;2023-04-05T11:16:52;9.80;49.00
814;DHT22;389;48.710;9.392;2023-04-05T11:19:19;9.80;48.60
814;DHT22;389;48.710;9.392;2023-04-05T11:21:45;9.90;48.80
814;DHT22;389;48.710;9.392;2023-04-05T11:24:12;9.90;48.20
814;DHT22;389;48.710;9.392;2023-04-05T11:29:09;10.10;47.40
814;DHT22;389;48.710;9.392;2023-04-05T11:31:35;10.20;46.00
814;DHT22;389;48.710;9.392;2023-04-05T11:34:05;10.20;44.80
814;DHT22;389;48.710;9.392;2023-04-05T11:36:43;10.20;44.40
814;DHT22;389;48.710;9.392;2023-04-05T11:42:01;10.20;46.70
814;DHT22;389;48.710;9.392;2023-04-05T11:44:47;10.30;46.70
814;DHT22;389;48.710;9.392;2023-04-05T11:47:18;10.50;47.20
814;DHT22;389;48.710;9.392;2023-04-05T11:49:49;10.50;47.00
814;DHT22;389;48.710;9.392;2023-04-05T11:52:16;10.40;46.50
814;DHT22;389;48.710;9.392;2023-04-05T11:54:43;10.50;47.00
814;DHT22;389;48.710;9.392;2023-04-05T11:57:21;10.40;46.70
814;DHT22;389;48.710;9.392;2023-04-05T11:59:52;10.40;46.80
814;DHT22;389;48.710;9.392;2023-04-05T12:02:18;10.50;46.70
814;DHT22;389;48.710;9.392;2023-04-05T12:04:52;10.50;46.50
814;DHT22;389;48.710;9.392;2023-04-05T12:07:18;10.50;46.20
814;DHT22;389;48.710;9.392;2023-04-05T12:09:58;10.60;46.70
814;DHT22;389;48.710;9.392;2023-04-05T12:12:26;10.70;46.40
814;DHT22;389;48.710;9.392;2023-04-05T12:15:00;10.70;46.10
814;DHT22;389;48.710;9.392;2023-04-05T12:22:30;10.90;45.90
814;DHT22;389;48.710;9.392;2023-04-05T12:24:56;11.00;46.00
814;DHT22;389;48.710;9.392;2023-04-05T12:27:23;11.00;45.50
814;DHT22;389;48.710;9.392;2023-04-05T12:32:47;11.20;46.30
814;DHT22;389;48.710;9.392;2023-04-05T12:35:16;11.20;45.90
814;DHT22;389;48.710;9.392;2023-04-05T12:37:43;11.30;45.90
814;DHT22;389;48.710;9.392;2023-04-05T12:40:10;11.30;45.60
814;DHT22;389;48.710;9.392;2023-04-05T12:42:38;11.30;45.50
814;DHT22;389;48.710;9.392;2023-04-05T12:45:10;11.40;45.80
814;DHT22;389;48.710;9.392;2023-04-05T12:47:55;11.40;46.50
814;DHT22;389;48.710;9.392;2023-04-05T12:50:27;11.50;45.80
814;DHT22;389;48.710;9.392;2023-04-05T12:52:54;11.50;45.80
814;DHT22;389;48.710;9.392;2023-04-05T12:55:20;11.60;45.50
814;DHT22;389;48.710;9.392;2023-04-05T12:57:59;11.70;45.90
814;DHT22;389;48.710;9.392;2023-04-05T13:00:27;11.80;45.40
814;DHT22;389;48.710;9.392;2023-04-05T13:02:55;11.80;44.70
814;DHT22;389;48.710;9.392;2023-04-05T13:05:23;11.80;44.90
814;DHT22;389;48.710;9.392;2023-04-05T13:07:49;12.00;45.60
814;DHT22;389;48.710;9.392;2023-04-05T13:10:15;12.00;44.90
814;DHT22;389;48.710;9.392;2023-04-05T13:12:41;12.10;44.80
814;DHT22;389;48.710;9.392;2023-04-05T13:15:08;11.90;44.90
814;DHT22;389;48.710;9.392;2023-04-05T13:17:34;12.00;44.60
814;DHT22;389;48.710;9.392;2023-04-05T13:20:00;12.10;44.20
814;DHT22;389;48.710;9.392;2023-04-05T13:22:25;11.90;45.00
814;DHT22;389;48.710;9.392;2023-04-05T13:24:51;12.10;45.10
814;DHT22;389;48.710;9.392;2023-04-05T13:27:18;12.00;45.20
814;DHT22;389;48.710;9.392;2023-04-05T13:29:46;12.20;44.90
814;DHT22;389;48.710;9.392;2023-04-05T13:32:12;12.10;44.70
814;DHT22;389;48.710;9.392;2023-04-05T13:34:38;12.30;44.60
814;DHT22;389;48.710;9.392;2023-04-05T13:39:31;12.30;46.00
814;DHT22;389;48.710;9.392;2023-04-05T13:42:00;12.40;45.70
814;DHT22;389;48.710;9.392;2023-04-05T13:44:26;12.50;44.80
814;DHT22;389;48.710;9.392;2023-04-05T13:46:52;12.60;44.70
814;DHT22;389;48.710;9.392;2023-04-05T13:49:17;12.60;44.50
814;DHT22;389;48.710;9.392;2023-04-05T13:51:43;12.70;44.60
814;DHT22;389;48.710;9.392;2023-04-05T13:54:09;12.90;44.40
814;DHT22;389;48.710;9.392;2023-04-05T13:56:39;12.70;43.40
814;DHT22;389;48.710;9.392;2023-04-05T13:59:05;12.70;43.20
814;DHT22;389;48.710;9.392;2023-04-05T14:01:32;12.70;43.30
814;DHT22;389;48.710;9.392;2023-04-05T14:03:58;12.70;43.50
814;DHT22;389;48.710;9.392;2023-04-05T14:08:59;12.70;43.90
814;DHT22;389;48.710;9.392;2023-04-05T14:11:25;12.70;44.10
814;DHT22;389;48.710;9.392;2023-04-05T14:13:51;12.80;44.00
814;DHT22;389;48.710;9.392;2023-04-05T14:16:16;12.90;43.90
814;DHT22;389;48.710;9.392;2023-04-05T14:18:42;13.10;44.70
814;DHT22;389;48.710;9.392;2023-04-05T14:21:08;13.20;44.20
814;DHT22;389;48.710;9.392;2023-04-05T14:23:33;13.30;44.10
814;DHT22;389;48.710;9.392;2023-04-05T14:25:59;13.50;44.10
814;DHT22;389;48.710;9.392;2023-04-05T14:31:00;13.30;43.00
814;DHT22;389;48.710;9.392;2023-04-05T14:33:26;13.20;42.60
814;DHT22;389;48.710;9.392;2023-04-05T14:35:52;13.20;43.10
814;DHT22;389;48.710;9.392;2023-04-05T14:38:18;13.10;43.10
814;DHT22;389;48.710;9.392;2023-04-05T14:40:43;13.20;43.40
814;DHT22;389;48.710;9.392;2023-04-05T14:43:09;13.10;43.50
814;DHT22;389;48.710;9.392;2023-04-05T14:45:35;13.10;43.80
814;DHT22;389;48.710;9.392;2023-04-05T14:48:01;13.20;44.40
814;DHT22;389;48.710;9.392;2023-04-05T14:50:26;13.40;43.90
814;DHT22;389;48.710;9.392;2023-04-05T14:52:53;13.30;44.30
814;DHT22;389;48.710;9.392;2023-04-05T14:55:19;13.40;43.40
814;DHT22;389;48.710;9.392;2023-04-05T14:57:44;13.50;43.40
814;DHT22;389;48.710;9.392;2023-04-05T15:00:11;13.60;43.50
814;DHT22;389;48.710;9.392;2023-04-05T15:02:37;13.50;42.40
814;DHT22;389;48.710;9.392;2023-04-05T15:05:03;13.40;42.20
814;DHT22;389;48.710;9.392;2023-04-05T15:07:29;13.40;42.80
814;DHT22;389;48.710;9.392;2023-04-05T15:09:55;13.40;42.30
814;DHT22;389;48.710;9.392;2023-04-05T15:12:21;13.30;42.10
814;DHT22;389;48.710;9.392;2023-04-05T15:14:47;13.30;42.70
814;DHT22;389;48.710;9.392;2023-04-05T15:17:17;13.10;42.90
814;DHT22;389;48.710;9.392;2023-04-05T15:19:42;12.80;43.10
814;DHT22;389;48.710;9.392;2023-04-05T15:22:08;12.70;43.10
814;DHT22;389;48.710;9.392;2023-04-05T15:24:36;12.60;42.90
814;DHT22;389;48.710;9.392;2023-04-05T15:27:02;12.50;43.00
814;DHT22;389;48.710;9.392;2023-04-05T15:29:28;12.50;43.20
814;DHT22;389;48.710;9.392;2023-04-05T15:31:56;12.50;43.10
814;DHT22;389;48.710;9.392;2023-04-05T15:34:22;12.50;43.30
814;DHT22;389;48.710;9.392;2023-04-05T15:36:48;12.50;43.20
814;DHT22;389;48.710;9.392;2023-04-05T15:39:14;12.50;43.10
814;DHT22;389;48.710;9.392;2023-04-05T15:41:40;12.50;42.90
814;DHT22;389;48.710;9.392;2023-04-05T15:44:06;12.40;42.60
814;DHT22;389;48.710;9.392;2023-04-05T15:46:31;12.40;43.40
814;DHT22;389;48.710;9.392;2023-04-05T15:48:57;12.30;42.70
814;DHT22;389;48.710;9.392;2023-04-05T15:51:23;12.20;42.80
814;DHT22;389;48.710;9.392;2023-04-05T15:53:50;12.20;42.90
814;DHT22;389;48.710;9.392;2023-04-05T15:56:16;12.20;43.20
814;DHT22;389;48.710;9.392;2023-04-05T15:58:42;12.10;43.10
814;DHT22;389;48.710;9.392;2023-04-05T16:01:08;12.10;43.50
814;DHT22;389;48.710;9.392;2023-04-05T16:03:33;12.10;43.20
814;DHT22;389;48.710;9.392;2023-04-05T16:05:59;12.10;43.20
814;DHT22;389;48.710;9.392;2023-04-05T16:08:25;12.20;43.00
814;DHT22;389;48.710;9.392;2023-04-05T16:10:50;12.10;42.80
814;DHT22;389;48.710;9.392;2023-04-05T16:13:16;12.10;43.00
814;DHT22;389;48.710;9.392;2023-04-05T16:15:41;12.10;43.20
814;DHT22;389;48.710;9.392;2023-04-05T16:18:08;12.00;43.30
814;DHT22;389;48.710;9.392;2023-04-05T16:20:35;12.00;43.10
814;DHT22;389;48.710;9.392;2023-04-05T16:23:01;12.00;43.00
814;DHT22;389;48.710;9.392;2023-04-05T16:25:27;12.00;42.80
814;DHT22;389;48.710;9.392;2023-04-05T16:27:53;12.00;43.00
814;DHT22;389;48.710;9.392;2023-04-05T16:30:19;11.90;42.90
814;DHT22;389;48.710;9.392;2023-04-05T16:32:44;11.80;42.80
814;DHT22;389;48.710;9.392;2023-04-05T16:35:13;11.80;42.90
814;DHT22;389;48.710;9.392;2023-04-05T16:37:39;11.70;43.20
814;DHT22;389;48.710;9.392;2023-04-05T16:40:05;11.80;43.40
814;DHT22;389;48.710;9.392;2023-04-05T16:42:31;11.70;43.40
814;DHT22;389;48.710;9.392;2023-04-05T16:44:57;11.70;43.40
814;DHT22;389;48.710;9.392;2023-04-05T16:47:23;11.70;43.40
814;DHT22;389;48.710;9.392;2023-04-05T16:49:48;11.70;43.20
814;DHT22;389;48.710;9.392;2023-04-05T16:52:15;11.70;43.20
814;DHT22;389;48.710;9.392;2023-04-05T16:54:40;11.60;43.10
814;DHT22;389;48.710;9.392;2023-04-05T16:57:06;11.60;43.10
814;DHT22;389;48.710;9.392;2023-04-05T16:59:32;11.80;43.20
814;DHT22;389;48.710;9.392;2023-04-05T17:01:57;11.60;43.50
814;DHT22;389;48.710;9.392;2023-04-05T17:04:23;11.60;43.70
814;DHT22;389;48.710;9.392;2023-04-05T17:06:49;11.60;44.00
814;DHT22;389;48.710;9.392;2023-04-05T17:09:15;11.50;43.60
814;DHT22;389;48.710;9.392;2023-04-05T17:11:42;11.40;43.90
814;DHT22;389;48.710;9.392;2023-04-05T17:14:08;11.30;44.10
814;DHT22;389;48.710;9.392;2023-04-05T17:16:36;11.30;44.50
814;DHT22;389;48.710;9.392;2023-04-05T17:19:03;11.20;45.60
814;DHT22;389;48.710;9.392;2023-04-05T17:21:29;11.10;46.00
814;DHT22;389;48.710;9.392;2023-04-05T17:23:55;11.00;46.40